sensor_id;sensor_type;location;lat;lon;timestamp;pressure;altitude;pressure_sealevel;temperature;humidity
76054;BME280;64752;48.870;9.082;2022-10-31T00:01:37;98562.59;;;10.84;91.91
76054;BME280;64752;48.870;9.082;2022-10-31T00:04:04;98555.31;;;10.97;91.74
76054;BME280;64752;48.870;9.082;2022-10-31T00:06:29;98561.41;;;10.96;91.59
76054;BME280;64752;48.870;9.082;2022-10-31T00:09:00;98566.09;;;10.83;91.61
76054;BME280;64752;48.870;9.082;2022-10-31T00:11:26;98571.66;;;10.68;92.28
76054;BME280;64752;48.870;9.082;2022-10-31T00:13:52;98570.34;;;10.53;92.15
76054;BME280;64752;48.870;9.082;2022-10-31T00:16:23;98567.72;;;10.53;93.00
76054;BME280;64752;48.870;9.082;2022-10-31T00:18:53;98569.69;;;10.45;93.08
76054;BME280;64752;48.870;9.082;2022-10-31T00:21:20;98572.28;;;10.45;92.87
76054;BME280;64752;48.870;9.082;2022-10-31T00:23:45;98570.53;;;10.45;92.99
76054;BME280;64752;48.870;9.082;2022-10-31T00:26:11;98564.25;;;10.54;93.03
76054;BME280;64752;48.870;9.082;2022-10-31T00:28:37;98567.06;;;10.46;92.58
76054;BME280;64752;48.870;9.082;2022-10-31T00:31:04;98566.31;;;10.41;92.84
76054;BME280;64752;48.870;9.082;2022-10-31T00:33:30;98570.59;;;10.42;93.13
76054;BME280;64752;48.870;9.082;2022-10-31T00:35:55;98567.28;;;10.37;93.18
76054;BME280;64752;48.870;9.082;2022-10-31T00:38:21;98570.91;;;10.31;93.55
76054;BME280;64752;48.870;9.082;2022-10-31T00:40:47;98570.09;;;10.28;93.22
76054;BME280;64752;48.870;9.082;2022-10-31T00:43:12;98564.94;;;10.26;93.34
76054;BME280;64752;48.870;9.082;2022-10-31T00:45:38;98565.53;;;10.37;93.08
76054;BME280;64752;48.870;9.082;2022-10-31T00:48:03;98566.13;;;10.49;92.56
76054;BME280;64752;48.870;9.082;2022-10-31T00:50:30;98565.91;;;10.56;92.38
76054;BME280;64752;48.870;9.082;2022-10-31T00:52:55;98553.06;;;10.53;92.21
76054;BME280;64752;48.870;9.082;2022-10-31T00:55:21;98560.16;;;10.45;92.58
76054;BME280;64752;48.870;9.082;2022-10-31T00:57:47;98560.97;;;10.47;92.26
76054;BME280;64752;48.870;9.082;2022-10-31T01:00:13;98555.75;;;10.49;92.23
76054;BME280;64752;48.870;9.082;2022-10-31T01:02:38;98554.91;;;10.48;92.08
76054;BME280;64752;48.870;9.082;2022-10-31T01:05:04;98556.69;;;10.46;92.30
76054;BME280;64752;48.870;9.082;2022-10-31T01:07:29;98554.16;;;10.43;92.30
76054;BME280;64752;48.870;9.082;2022-10-31T01:09:54;98555.94;;;10.41;92.39
76054;BME280;64752;48.870;9.082;2022-10-31T01:12:20;98556.66;;;10.48;92.07
76054;BME280;64752;48.870;9.082;2022-10-31T01:14:45;98560.03;;;10.51;91.67
76054;BME280;64752;48.870;9.082;2022-10-31T01:17:12;98555.53;;;10.56;91.50
76054;BME280;64752;48.870;9.082;2022-10-31T01:19:37;98558.34;;;10.49;91.80
76054;BME280;64752;48.870;9.082;2022-10-31T01:22:02;98557.53;;;10.47;91.98
76054;BME280;64752;48.870;9.082;2022-10-31T01:24:28;98550.53;;;10.50;91.86
76054;BME280;64752;48.870;9.082;2022-10-31T01:26:53;98559.25;;;10.48;91.94
76054;BME280;64752;48.870;9.082;2022-10-31T01:29:18;98552.31;;;10.48;91.43
76054;BME280;64752;48.870;9.082;2022-10-31T01:31:44;98551.38;;;10.51;91.28
76054;BME280;64752;48.870;9.082;2022-10-31T01:34:14;98550.63;;;10.46;91.72
76054;BME280;64752;48.870;9.082;2022-10-31T01:36:39;98549.78;;;10.45;91.72
76054;BME280;64752;48.870;9.082;2022-10-31T01:39:08;98554.13;;;10.45;91.52
76054;BME280;64752;48.870;9.082;2022-10-31T01:41:37;98549.75;;;10.47;91.53
76054;BME280;64752;48.870;9.082;2022-10-31T01:46:51;98561.44;;;10.63;90.91
76054;BME280;64752;48.870;9.082;2022-10-31T01:49:26;98560.63;;;10.61;90.77
76054;BME280;64752;48.870;9.082;2022-10-31T01:51:59;98552.91;;;10.58;90.81
76054;BME280;64752;48.870;9.082;2022-10-31T01:54:32;98551.22;;;10.57;91.04
76054;BME280;64752;48.870;9.082;2022-10-31T01:56:59;98548.56;;;10.58;90.49
76054;BME280;64752;48.870;9.082;2022-10-31T01:59:29;98550.28;;;10.59;90.60
76054;BME280;64752;48.870;9.082;2022-10-31T02:01:56;98554.66;;;10.57;90.44
76054;BME280;64752;48.870;9.082;2022-10-31T02:04:23;98547.88;;;10.53;90.79
76054;BME280;64752;48.870;9.082;2022-10-31T02:06:55;98552.28;;;10.50;90.79
76054;BME280;64752;48.870;9.082;2022-10-31T02:09:22;98550.63;;;10.46;90.90
76054;BME280;64752;48.870;9.082;2022-10-31T02:11:52;98551.56;;;10.43;91.16
76054;BME280;64752;48.870;9.082;2022-10-31T02:14:21;98555.88;;;10.44;90.92
76054;BME280;64752;48.870;9.082;2022-10-31T02:16:47;98560.34;;;10.37;91.41
76054;BME280;64752;48.870;9.082;2022-10-31T02:19:24;98550.97;;;10.33;91.26
76054;BME280;64752;48.870;9.082;2022-10-31T02:22:13;98549.16;;;10.37;91.42
76054;BME280;64752;48.870;9.082;2022-10-31T02:32:48;98552.19;;;10.17;92.08
76054;BME280;64752;48.870;9.082;2022-10-31T02:41:23;98547.91;;;10.16;92.13
76054;BME280;64752;48.870;9.082;2022-10-31T02:46:49;98548.97;;;10.07;92.19
76054;BME280;64752;48.870;9.082;2022-10-31T02:49:32;98538.00;;;9.96;92.41
76054;BME280;64752;48.870;9.082;2022-10-31T02:51:58;98543.84;;;10.06;91.83
76054;BME280;64752;48.870;9.082;2022-10-31T02:54:26;98544.88;;;9.98;92.04
76054;BME280;64752;48.870;9.082;2022-10-31T02:57:02;98547.50;;;9.97;91.86
76054;BME280;64752;48.870;9.082;2022-10-31T02:59:31;98545.78;;;9.96;92.02
76054;BME280;64752;48.870;9.082;2022-10-31T03:02:01;98546.69;;;9.95;92.01
76054;BME280;64752;48.870;9.082;2022-10-31T03:04:40;98545.78;;;9.96;92.05
76054;BME280;64752;48.870;9.082;2022-10-31T03:07:38;98547.59;;;9.92;92.38
76054;BME280;64752;48.870;9.082;2022-10-31T03:15:23;98540.75;;;9.90;92.15
76054;BME280;64752;48.870;9.082;2022-10-31T03:18:20;98543.34;;;9.90;92.72
76054;BME280;64752;48.870;9.082;2022-10-31T03:20:57;98551.06;;;9.93;92.60
76054;BME280;64752;48.870;9.082;2022-10-31T03:23:25;98548.53;;;9.90;92.14
76054;BME280;64752;48.870;9.082;2022-10-31T03:25:53;98543.50;;;9.83;92.39
76054;BME280;64752;48.870;9.082;2022-10-31T03:28:24;98547.69;;;9.89;92.46
76054;BME280;64752;48.870;9.082;2022-10-31T03:30:51;98549.53;;;9.84;92.60
76054;BME280;64752;48.870;9.082;2022-10-31T03:33:22;98544.34;;;9.84;92.31
76054;BME280;64752;48.870;9.082;2022-10-31T03:35:51;98548.78;;;9.79;92.20
76054;BME280;64752;48.870;9.082;2022-10-31T03:38:18;98551.53;;;9.73;92.93
76054;BME280;64752;48.870;9.082;2022-10-31T03:40:45;98544.53;;;9.76;92.37
76054;BME280;64752;48.870;9.082;2022-10-31T03:43:16;98546.16;;;9.80;92.37
76054;BME280;64752;48.870;9.082;2022-10-31T03:45:46;98554.34;;;9.62;92.63
76054;BME280;64752;48.870;9.082;2022-10-31T03:48:16;98554.56;;;9.53;92.72
76054;BME280;64752;48.870;9.082;2022-10-31T03:53:34;98545.75;;;9.61;92.80
76054;BME280;64752;48.870;9.082;2022-10-31T03:58:38;98537.81;;;9.68;92.19
76054;BME280;64752;48.870;9.082;2022-10-31T04:01:11;98539.47;;;9.70;92.41
76054;BME280;64752;48.870;9.082;2022-10-31T04:03:38;98539.44;;;9.72;92.39
76054;BME280;64752;48.870;9.082;2022-10-31T04:06:07;98541.94;;;9.76;92.09
76054;BME280;64752;48.870;9.082;2022-10-31T04:08:39;98548.03;;;9.74;91.70
76054;BME280;64752;48.870;9.082;2022-10-31T04:11:07;98538.78;;;9.63;92.21
76054;BME280;64752;48.870;9.082;2022-10-31T04:13:34;98543.09;;;9.63;92.21
76054;BME280;64752;48.870;9.082;2022-10-31T04:16:02;98538.78;;;9.63;92.51
76054;BME280;64752;48.870;9.082;2022-10-31T04:18:28;98535.47;;;9.57;92.61
76054;BME280;64752;48.870;9.082;2022-10-31T04:21:02;98527.69;;;9.57;92.37
76054;BME280;64752;48.870;9.082;2022-10-31T04:23:28;98532.00;;;9.58;92.56
76054;BME280;64752;48.870;9.082;2022-10-31T04:25:53;98528.59;;;9.56;92.30
76054;BME280;64752;48.870;9.082;2022-10-31T04:28:19;98538.03;;;9.58;92.62
76054;BME280;64752;48.870;9.082;2022-10-31T04:30:44;98534.63;;;9.56;92.47
76054;BME280;64752;48.870;9.082;2022-10-31T04:33:09;98525.16;;;9.55;92.52
76054;BME280;64752;48.870;9.082;2022-10-31T04:35:35;98528.66;;;9.53;92.44
76054;BME280;64752;48.870;9.082;2022-10-31T04:38:00;98521.75;;;9.53;92.74
76054;BME280;64752;48.870;9.082;2022-10-31T04:40:26;98525.06;;;9.60;92.61
76054;BME280;64752;48.870;9.082;2022-10-31T04:42:51;98519.91;;;9.58;92.67
76054;BME280;64752;48.870;9.082;2022-10-31T04:45:16;98525.03;;;9.61;92.57
76054;BME280;64752;48.870;9.082;2022-10-31T04:47:42;98510.38;;;9.59;92.85
76054;BME280;64752;48.870;9.082;2022-10-31T04:50:07;98515.56;;;9.59;92.93
76054;BME280;64752;48.870;9.082;2022-10-31T04:52:38;98511.31;;;9.56;93.00
76054;BME280;64752;48.870;9.082;2022-10-31T04:55:04;98508.78;;;9.53;92.98
76054;BME280;64752;48.870;9.082;2022-10-31T04:57:29;98512.41;;;9.46;93.06
76054;BME280;64752;48.870;9.082;2022-10-31T04:59:55;98509.94;;;9.41;93.39
76054;BME280;64752;48.870;9.082;2022-10-31T05:02:20;98507.34;;;9.41;93.56
76054;BME280;64752;48.870;9.082;2022-10-31T05:04:45;98508.34;;;9.36;93.26
76054;BME280;64752;48.870;9.082;2022-10-31T05:07:10;98504.03;;;9.35;93.49
76054;BME280;64752;48.870;9.082;2022-10-31T05:09:36;98500.66;;;9.31;93.64
76054;BME280;64752;48.870;9.082;2022-10-31T05:12:01;98509.34;;;9.29;93.63
76054;BME280;64752;48.870;9.082;2022-10-31T05:14:26;98500.97;;;9.17;93.87
76054;BME280;64752;48.870;9.082;2022-10-31T05:16:52;98503.66;;;9.13;93.87
76054;BME280;64752;48.870;9.082;2022-10-31T05:19:17;98503.66;;;9.11;94.33
76054;BME280;64752;48.870;9.082;2022-10-31T05:21:42;98499.88;;;9.27;93.91
76054;BME280;64752;48.870;9.082;2022-10-31T05:24:08;98490.38;;;9.28;94.06
76054;BME280;64752;48.870;9.082;2022-10-31T05:26:33;98490.44;;;9.26;93.83
76054;BME280;64752;48.870;9.082;2022-10-31T05:28:59;98492.38;;;9.15;93.37
76054;BME280;64752;48.870;9.082;2022-10-31T05:31:24;98494.13;;;9.15;93.47
76054;BME280;64752;48.870;9.082;2022-10-31T05:33:50;98495.84;;;9.16;93.66
76054;BME280;64752;48.870;9.082;2022-10-31T05:36:16;98494.13;;;9.15;93.34
76054;BME280;64752;48.870;9.082;2022-10-31T05:38:41;98491.63;;;9.10;93.57
76054;BME280;64752;48.870;9.082;2022-10-31T05:41:06;98492.50;;;9.09;93.58
76054;BME280;64752;48.870;9.082;2022-10-31T05:43:32;98485.66;;;9.08;93.50
76054;BME280;64752;48.870;9.082;2022-10-31T05:45:57;98484.03;;;9.02;93.74
76054;BME280;64752;48.870;9.082;2022-10-31T05:48:22;98482.41;;;8.97;93.57
76054;BME280;64752;48.870;9.082;2022-10-31T05:50:48;98490.22;;;8.95;93.90
76054;BME280;64752;48.870;9.082;2022-10-31T05:53:14;98485.94;;;8.93;94.29
76054;BME280;64752;48.870;9.082;2022-10-31T05:55:41;98488.69;;;8.86;94.45
76054;BME280;64752;48.870;9.082;2022-10-31T05:58:07;98492.25;;;8.79;94.10
76054;BME280;64752;48.870;9.082;2022-10-31T06:00:33;98491.38;;;8.80;94.59
76054;BME280;64752;48.870;9.082;2022-10-31T06:03:03;98485.31;;;8.83;94.34
76054;BME280;64752;48.870;9.082;2022-10-31T06:05:29;98478.19;;;8.93;94.01
76054;BME280;64752;48.870;9.082;2022-10-31T06:07:55;98475.56;;;8.94;93.82
76054;BME280;64752;48.870;9.082;2022-10-31T06:10:20;98478.91;;;9.01;93.58
76054;BME280;64752;48.870;9.082;2022-10-31T06:12:47;98479.75;;;9.01;93.59
76054;BME280;64752;48.870;9.082;2022-10-31T06:15:12;98477.00;;;9.09;93.14
76054;BME280;64752;48.870;9.082;2022-10-31T06:17:38;98480.47;;;9.08;92.85
76054;BME280;64752;48.870;9.082;2022-10-31T06:20:04;98471.00;;;9.07;93.02
76054;BME280;64752;48.870;9.082;2022-10-31T06:22:30;98483.94;;;9.07;92.76
76054;BME280;64752;48.870;9.082;2022-10-31T06:24:55;98485.56;;;9.11;93.43
76054;BME280;64752;48.870;9.082;2022-10-31T06:27:21;98482.91;;;9.14;93.39
76054;BME280;64752;48.870;9.082;2022-10-31T06:29:46;98488.97;;;9.13;93.18
76054;BME280;64752;48.870;9.082;2022-10-31T06:32:12;98476.84;;;9.15;92.62
76054;BME280;64752;48.870;9.082;2022-10-31T06:34:39;98484.47;;;9.23;92.78
76054;BME280;64752;48.870;9.082;2022-10-31T06:37:11;98477.44;;;9.28;92.48
76054;BME280;64752;48.870;9.082;2022-10-31T06:39:37;98483.31;;;9.36;92.14
76054;BME280;64752;48.870;9.082;2022-10-31T06:42:03;98484.97;;;9.37;91.84
76054;BME280;64752;48.870;9.082;2022-10-31T06:44:29;98481.34;;;9.46;91.90
76054;BME280;64752;48.870;9.082;2022-10-31T06:46:58;98480.97;;;9.97;90.89
76054;BME280;64752;48.870;9.082;2022-10-31T06:49:23;98483.66;;;10.61;88.14
76054;BME280;64752;48.870;9.082;2022-10-31T06:51:49;98482.31;;;11.09;85.85
76054;BME280;64752;48.870;9.082;2022-10-31T06:54:15;98475.19;;;11.44;84.96
76054;BME280;64752;48.870;9.082;2022-10-31T06:56:40;98472.53;;;11.74;83.26
76054;BME280;64752;48.870;9.082;2022-10-31T06:59:06;98471.91;;;12.21;83.14
76054;BME280;64752;48.870;9.082;2022-10-31T07:01:31;98475.81;;;12.58;80.68
76054;BME280;64752;48.870;9.082;2022-10-31T07:03:57;98492.28;;;12.82;79.55
76054;BME280;64752;48.870;9.082;2022-10-31T07:06:22;98487.25;;;12.77;79.92
76054;BME280;64752;48.870;9.082;2022-10-31T07:08:47;98487.19;;;12.79;80.14
76054;BME280;64752;48.870;9.082;2022-10-31T07:11:13;98483.91;;;12.73;79.88
76054;BME280;64752;48.870;9.082;2022-10-31T07:13:38;98490.13;;;12.69;81.91
76054;BME280;64752;48.870;9.082;2022-10-31T07:16:05;98497.00;;;12.72;81.05
76054;BME280;64752;48.870;9.082;2022-10-31T07:18:32;98491.91;;;13.16;80.10
76054;BME280;64752;48.870;9.082;2022-10-31T07:20:58;98500.72;;;13.12;79.80
76054;BME280;64752;48.870;9.082;2022-10-31T07:23:23;98513.53;;;12.95;80.66
76054;BME280;64752;48.870;9.082;2022-10-31T07:25:48;98495.38;;;12.68;81.71
76054;BME280;64752;48.870;9.082;2022-10-31T07:28:13;98500.72;;;12.65;82.08
76054;BME280;64752;48.870;9.082;2022-10-31T07:30:39;98496.84;;;12.75;82.28
76054;BME280;64752;48.870;9.082;2022-10-31T07:33:05;98501.84;;;13.05;83.20
76054;BME280;64752;48.870;9.082;2022-10-31T07:35:31;98503.13;;;13.42;80.27
76054;BME280;64752;48.870;9.082;2022-10-31T07:37:57;98500.25;;;13.70;80.05
76054;BME280;64752;48.870;9.082;2022-10-31T07:40:23;98498.16;;;14.00;79.00
76054;BME280;64752;48.870;9.082;2022-10-31T07:42:50;98500.38;;;14.10;78.41
76054;BME280;64752;48.870;9.082;2022-10-31T07:45:18;98501.97;;;14.14;76.63
76054;BME280;64752;48.870;9.082;2022-10-31T07:47:45;98495.97;;;14.73;76.87
76054;BME280;64752;48.870;9.082;2022-10-31T07:50:16;98499.38;;;14.75;74.16
76054;BME280;64752;48.870;9.082;2022-10-31T07:52:42;98498.59;;;15.13;74.88
76054;BME280;64752;48.870;9.082;2022-10-31T07:55:08;98496.81;;;14.94;73.25
76054;BME280;64752;48.870;9.082;2022-10-31T07:57:33;98491.34;;;15.56;70.22
76054;BME280;64752;48.870;9.082;2022-10-31T07:59:59;98481.25;;;15.48;70.02
76054;BME280;64752;48.870;9.082;2022-10-31T08:02:25;98489.06;;;16.04;69.75
76054;BME280;64752;48.870;9.082;2022-10-31T08:04:51;98479.50;;;16.55;66.65
76054;BME280;64752;48.870;9.082;2022-10-31T08:07:16;98484.69;;;16.04;68.33
76054;BME280;64752;48.870;9.082;2022-10-31T08:09:42;98486.69;;;15.43;69.64
76054;BME280;64752;48.870;9.082;2022-10-31T08:12:07;98490.53;;;16.44;71.70
76054;BME280;64752;48.870;9.082;2022-10-31T08:14:32;98498.63;;;16.22;71.89
76054;BME280;64752;48.870;9.082;2022-10-31T08:16:58;98492.56;;;16.90;67.72
76054;BME280;64752;48.870;9.082;2022-10-31T08:19:23;98485.00;;;17.49;66.23
76054;BME280;64752;48.870;9.082;2022-10-31T08:21:52;98481.94;;;17.72;64.73
76054;BME280;64752;48.870;9.082;2022-10-31T08:24:22;98485.78;;;17.35;66.33
76054;BME280;64752;48.870;9.082;2022-10-31T08:26:48;98477.97;;;17.33;66.23
76054;BME280;64752;48.870;9.082;2022-10-31T08:29:13;98476.41;;;17.77;63.59
76054;BME280;64752;48.870;9.082;2022-10-31T08:31:39;98478.81;;;17.50;64.01
76054;BME280;64752;48.870;9.082;2022-10-31T08:34:05;98472.84;;;16.83;67.72
76054;BME280;64752;48.870;9.082;2022-10-31T08:36:30;98475.09;;;17.06;67.31
76054;BME280;64752;48.870;9.082;2022-10-31T08:38:55;98470.34;;;16.97;66.79
76054;BME280;64752;48.870;9.082;2022-10-31T08:41:21;98461.19;;;16.55;67.40
76054;BME280;64752;48.870;9.082;2022-10-31T08:43:46;98467.72;;;16.80;66.84
76054;BME280;64752;48.870;9.082;2022-10-31T08:46:12;98464.34;;;16.62;67.42
76054;BME280;64752;48.870;9.082;2022-10-31T08:48:37;98466.59;;;16.85;68.31
76054;BME280;64752;48.870;9.082;2022-10-31T08:51:03;98462.97;;;16.54;67.92
76054;BME280;64752;48.870;9.082;2022-10-31T08:53:28;98450.69;;;16.55;68.28
76054;BME280;64752;48.870;9.082;2022-10-31T08:55:55;98452.34;;;16.73;68.20
76054;BME280;64752;48.870;9.082;2022-10-31T08:58:21;98458.53;;;17.06;67.93
76054;BME280;64752;48.870;9.082;2022-10-31T09:00:49;98458.44;;;17.39;67.85
76054;BME280;64752;48.870;9.082;2022-10-31T09:03:21;98457.09;;;17.32;69.23
76054;BME280;64752;48.870;9.082;2022-10-31T09:05:47;98465.38;;;17.56;67.05
76054;BME280;64752;48.870;9.082;2022-10-31T09:08:13;98462.44;;;17.77;66.90
76054;BME280;64752;48.870;9.082;2022-10-31T09:10:39;98464.50;;;17.87;66.39
76054;BME280;64752;48.870;9.082;2022-10-31T09:13:10;98459.38;;;17.84;65.29
76054;BME280;64752;48.870;9.082;2022-10-31T09:15:38;98466.78;;;18.53;63.26
76054;BME280;64752;48.870;9.082;2022-10-31T09:18:05;98449.09;;;18.85;62.35
76054;BME280;64752;48.870;9.082;2022-10-31T09:20:31;98461.97;;;18.90;62.83
76054;BME280;64752;48.870;9.082;2022-10-31T09:23:05;98448.59;;;19.21;61.44
76054;BME280;64752;48.870;9.082;2022-10-31T09:25:32;98446.50;;;19.26;60.81
76054;BME280;64752;48.870;9.082;2022-10-31T09:27:59;98448.97;;;19.84;59.59
76054;BME280;64752;48.870;9.082;2022-10-31T09:30:27;98442.25;;;19.38;59.68
76054;BME280;64752;48.870;9.082;2022-10-31T09:33:00;98445.47;;;19.56;60.04
76054;BME280;64752;48.870;9.082;2022-10-31T09:35:26;98441.88;;;19.57;59.37
76054;BME280;64752;48.870;9.082;2022-10-31T09:37:59;98434.28;;;20.84;56.93
76054;BME280;64752;48.870;9.082;2022-10-31T09:40:34;98432.63;;;20.83;57.01
76054;BME280;64752;48.870;9.082;2022-10-31T09:45:31;98432.78;;;21.43;55.75
76054;BME280;64752;48.870;9.082;2022-10-31T09:50:55;98434.59;;;21.66;55.75
76054;BME280;64752;48.870;9.082;2022-10-31T09:53:48;98437.41;;;23.03;51.34
76054;BME280;64752;48.870;9.082;2022-10-31T09:56:18;98437.03;;;23.31;50.47
76054;BME280;64752;48.870;9.082;2022-10-31T09:58:54;98444.03;;;22.17;52.63
76054;BME280;64752;48.870;9.082;2022-10-31T10:01:28;98440.47;;;22.29;52.40
76054;BME280;64752;48.870;9.082;2022-10-31T10:03:59;98437.97;;;22.28;52.09
76054;BME280;64752;48.870;9.082;2022-10-31T10:06:32;98438.72;;;21.33;54.42
76054;BME280;64752;48.870;9.082;2022-10-31T10:08:59;98434.56;;;21.18;55.50
76054;BME280;64752;48.870;9.082;2022-10-31T10:17:16;98429.41;;;20.01;59.74
76054;BME280;64752;48.870;9.082;2022-10-31T10:19:53;98430.25;;;19.61;60.55
76054;BME280;64752;48.870;9.082;2022-10-31T10:22:35;98427.00;;;21.01;57.25
76054;BME280;64752;48.870;9.082;2022-10-31T10:25:38;98422.38;;;21.65;55.33
76054;BME280;64752;48.870;9.082;2022-10-31T10:31:01;98413.00;;;22.43;53.04
76054;BME280;64752;48.870;9.082;2022-10-31T10:33:33;98412.31;;;21.46;55.90
76054;BME280;64752;48.870;9.082;2022-10-31T10:36:10;98412.19;;;21.72;55.97
76054;BME280;64752;48.870;9.082;2022-10-31T10:38:50;98418.00;;;21.88;55.41
76054;BME280;64752;48.870;9.082;2022-10-31T10:41:18;98406.03;;;21.95;54.77
76054;BME280;64752;48.870;9.082;2022-10-31T10:43:44;98407.88;;;22.18;53.79
76054;BME280;64752;48.870;9.082;2022-10-31T11:02:44;98391.41;;;21.06;58.77
76054;BME280;64752;48.870;9.082;2022-10-31T11:05:18;98389.16;;;21.26;57.31
76054;BME280;64752;48.870;9.082;2022-10-31T11:07:47;98377.66;;;21.27;57.53
76054;BME280;64752;48.870;9.082;2022-10-31T11:10:14;98379.22;;;21.29;56.69
76054;BME280;64752;48.870;9.082;2022-10-31T11:12:40;98375.28;;;20.48;60.79
76054;BME280;64752;48.870;9.082;2022-10-31T11:15:18;98364.16;;;20.94;58.25
76054;BME280;64752;48.870;9.082;2022-10-31T11:17:51;98356.88;;;21.22;56.58
76054;BME280;64752;48.870;9.082;2022-10-31T11:20:23;98346.06;;;21.14;56.40
76054;BME280;64752;48.870;9.082;2022-10-31T11:22:49;98350.94;;;21.07;56.60
76054;BME280;64752;48.870;9.082;2022-10-31T11:25:26;98349.53;;;21.14;56.66
76054;BME280;64752;48.870;9.082;2022-10-31T11:28:04;98344.00;;;20.05;60.87
76054;BME280;64752;48.870;9.082;2022-10-31T11:30:35;98349.06;;;20.21;59.05
76054;BME280;64752;48.870;9.082;2022-10-31T11:33:32;98345.59;;;20.08;59.18
76054;BME280;64752;48.870;9.082;2022-10-31T11:35:57;98339.03;;;20.65;57.91
76054;BME280;64752;48.870;9.082;2022-10-31T11:38:29;98342.50;;;20.52;57.62
76054;BME280;64752;48.870;9.082;2022-10-31T11:41:18;98331.16;;;20.89;56.58
76054;BME280;64752;48.870;9.082;2022-10-31T11:44:09;98328.91;;;20.46;57.55
76054;BME280;64752;48.870;9.082;2022-10-31T11:46:42;98328.78;;;20.60;56.38
76054;BME280;64752;48.870;9.082;2022-10-31T11:49:28;98325.28;;;20.85;56.53
76054;BME280;64752;48.870;9.082;2022-10-31T11:51:56;98313.84;;;21.22;55.60
76054;BME280;64752;48.870;9.082;2022-10-31T11:54:41;98313.59;;;20.76;56.80
76054;BME280;64752;48.870;9.082;2022-10-31T11:57:31;98320.50;;;21.38;55.17
76054;BME280;64752;48.870;9.082;2022-10-31T12:00:01;98316.69;;;20.70;56.72
76054;BME280;64752;48.870;9.082;2022-10-31T12:02:29;98311.94;;;20.99;56.07
76054;BME280;64752;48.870;9.082;2022-10-31T12:05:11;98314.41;;;20.90;55.23
76054;BME280;64752;48.870;9.082;2022-10-31T12:07:42;98319.06;;;21.70;54.35
76054;BME280;64752;48.870;9.082;2022-10-31T12:10:11;98310.31;;;21.69;52.74
76054;BME280;64752;48.870;9.082;2022-10-31T12:12:54;98302.75;;;21.76;53.26
76054;BME280;64752;48.870;9.082;2022-10-31T12:15:30;98300.94;;;21.65;52.77
76054;BME280;64752;48.870;9.082;2022-10-31T12:23:32;98280.59;;;22.12;52.56
76054;BME280;64752;48.870;9.082;2022-10-31T12:26:15;98278.06;;;22.00;51.60
76054;BME280;64752;48.870;9.082;2022-10-31T12:45:39;98250.16;;;20.67;57.15
76054;BME280;64752;48.870;9.082;2022-10-31T12:58:48;98232.28;;;20.09;58.38
76054;BME280;64752;48.870;9.082;2022-10-31T13:01:18;98220.06;;;20.08;58.70
76054;BME280;64752;48.870;9.082;2022-10-31T13:06:40;98218.25;;;19.32;61.53
76054;BME280;64752;48.870;9.082;2022-10-31T13:09:09;98217.66;;;19.41;62.01
76054;BME280;64752;48.870;9.082;2022-10-31T13:11:43;98210.28;;;19.59;61.87
76054;BME280;64752;48.870;9.082;2022-10-31T13:16:46;98200.19;;;19.27;62.05
76054;BME280;64752;48.870;9.082;2022-10-31T13:19:23;98193.22;;;19.26;62.04
76054;BME280;64752;48.870;9.082;2022-10-31T13:24:22;98198.59;;;18.57;64.04
76054;BME280;64752;48.870;9.082;2022-10-31T13:26:53;98187.69;;;18.91;63.68
76054;BME280;64752;48.870;9.082;2022-10-31T13:29:27;98181.88;;;19.25;62.21
76054;BME280;64752;48.870;9.082;2022-10-31T13:31:54;98181.34;;;19.46;60.92
76054;BME280;64752;48.870;9.082;2022-10-31T13:40:12;98188.75;;;21.13;56.25
76054;BME280;64752;48.870;9.082;2022-10-31T13:42:46;98188.00;;;22.25;52.96
76054;BME280;64752;48.870;9.082;2022-10-31T13:45:18;98185.97;;;23.99;47.69
76054;BME280;64752;48.870;9.082;2022-10-31T13:48:40;98185.16;;;24.58;46.69
76054;BME280;64752;48.870;9.082;2022-10-31T13:50:41;98181.78;;;24.66;46.17
76054;BME280;64752;48.870;9.082;2022-10-31T13:53:18;98184.66;;;25.51;44.43
76054;BME280;64752;48.870;9.082;2022-10-31T13:55:49;98185.03;;;23.79;47.55
76054;BME280;64752;48.870;9.082;2022-10-31T13:58:29;98179.78;;;22.51;51.21
76054;BME280;64752;48.870;9.082;2022-10-31T14:01:13;98172.00;;;23.03;50.89
76054;BME280;64752;48.870;9.082;2022-10-31T14:03:42;98165.56;;;22.08;53.11
76054;BME280;64752;48.870;9.082;2022-10-31T14:06:10;98158.81;;;21.25;55.70
76054;BME280;64752;48.870;9.082;2022-10-31T14:08:39;98156.69;;;21.42;55.05
76054;BME280;64752;48.870;9.082;2022-10-31T14:11:08;98167.84;;;21.34;55.37
76054;BME280;64752;48.870;9.082;2022-10-31T14:13:42;98171.00;;;20.68;58.16
76054;BME280;64752;48.870;9.082;2022-10-31T14:16:23;98157.50;;;20.36;58.73
76054;BME280;64752;48.870;9.082;2022-10-31T14:19:14;98156.31;;;20.40;59.72
76054;BME280;64752;48.870;9.082;2022-10-31T14:21:46;98154.19;;;20.21;59.48
76054;BME280;64752;48.870;9.082;2022-10-31T14:24:49;98144.53;;;20.09;59.01
76054;BME280;64752;48.870;9.082;2022-10-31T14:29:44;98140.94;;;19.60;60.29
76054;BME280;64752;48.870;9.082;2022-10-31T14:34:43;98141.91;;;19.33;61.15
76054;BME280;64752;48.870;9.082;2022-10-31T14:45:23;98133.34;;;20.18;58.90
76054;BME280;64752;48.870;9.082;2022-10-31T14:50:58;98131.81;;;20.02;59.31
76054;BME280;64752;48.870;9.082;2022-10-31T14:53:28;98123.88;;;19.65;60.92
76054;BME280;64752;48.870;9.082;2022-10-31T14:55:56;98128.34;;;19.52;62.21
76054;BME280;64752;48.870;9.082;2022-10-31T14:58:28;98128.97;;;19.43;62.11
76054;BME280;64752;48.870;9.082;2022-10-31T15:00:57;98126.53;;;19.01;64.08
76054;BME280;64752;48.870;9.082;2022-10-31T15:05:51;98133.25;;;18.93;64.61
76054;BME280;64752;48.870;9.082;2022-10-31T15:08:39;98136.19;;;18.48;66.49
76054;BME280;64752;48.870;9.082;2022-10-31T15:11:25;98131.78;;;18.61;66.13
76054;BME280;64752;48.870;9.082;2022-10-31T15:13:56;98129.72;;;18.66;66.38
76054;BME280;64752;48.870;9.082;2022-10-31T15:16:24;98122.75;;;18.25;66.37
76054;BME280;64752;48.870;9.082;2022-10-31T15:19:04;98137.94;;;17.93;68.06
76054;BME280;64752;48.870;9.082;2022-10-31T15:21:30;98138.41;;;17.71;68.77